createdAt,value
2023-01-07T00:01:29.910Z,95718.19
2023-01-07T00:03:58.314Z,95727.56
2023-01-07T00:06:28.609Z,95717.97
2023-01-07T00:08:57.585Z,95721.44
2023-01-07T00:11:30.096Z,95737.13
2023-01-07T00:13:58.790Z,95729.75
2023-01-07T00:16:28.990Z,95726.47
2023-01-07T00:18:57.837Z,95733.22
2023-01-07T00:21:27.122Z,95729.25
2023-01-07T00:23:56.277Z,95741.72
2023-01-07T00:26:25.382Z,95723.88
2023-01-07T00:28:53.418Z,95731.00
2023-01-07T00:31:25.313Z,95739.13
2023-01-07T00:33:55.582Z,95745.84
2023-01-07T00:36:24.660Z,95731.81
2023-01-07T00:38:56.085Z,95729.53
2023-01-07T00:41:23.684Z,95732.19
2023-01-07T00:43:51.128Z,95726.44
2023-01-07T00:46:18.373Z,95736.84
2023-01-07T00:48:46.047Z,95752.91
2023-01-07T00:51:14.721Z,95747.84
2023-01-07T00:53:42.305Z,95734.13
2023-01-07T00:56:14.703Z,95751.88
2023-01-07T00:58:42.325Z,95753.72
2023-01-07T01:01:10.933Z,95749.44
2023-01-07T01:03:38.914Z,95755.53
2023-01-07T01:06:14.675Z,95749.38
2023-01-07T01:08:43.623Z,95757.53
2023-01-07T01:11:13.031Z,95751.53
2023-01-07T01:13:41.227Z,95768.22
2023-01-07T01:16:14.737Z,95766.56
2023-01-07T01:18:42.194Z,95758.53
2023-01-07T01:21:13.834Z,95763.22
2023-01-07T01:23:42.637Z,95746.09
2023-01-07T01:26:13.554Z,95758.34
2023-01-07T01:28:40.918Z,95760.19
2023-01-07T01:31:09.460Z,95760.44
2023-01-07T01:33:45.742Z,95754.63
2023-01-07T01:36:13.338Z,95759.19
2023-01-07T01:38:41.586Z,95748.94
2023-01-07T01:41:09.158Z,95730.72
2023-01-07T01:43:41.988Z,95756.69
2023-01-07T01:46:13.465Z,95753.59
2023-01-07T01:48:52.463Z,95748.50
2023-01-07T01:51:23.947Z,95751.31
2023-01-07T01:53:52.767Z,95757.81
2023-01-07T01:56:30.630Z,95746.41
2023-01-07T01:59:01.106Z,95737.66
2023-01-07T02:01:29.192Z,95743.75
2023-01-07T02:03:58.192Z,95735.19
2023-01-07T02:06:29.107Z,95744.53
2023-01-07T02:08:56.323Z,95740.91
2023-01-07T02:11:44.582Z,95732.13
2023-01-07T02:14:42.585Z,95731.25
2023-01-07T02:17:21.526Z,95725.34
2023-01-07T02:20:13.860Z,95740.63
2023-01-07T02:23:30.577Z,95726.97
2023-01-07T02:26:16.508Z,95737.94
2023-01-07T02:29:08.834Z,95731.63
2023-01-07T02:31:51.348Z,95734.03
2023-01-07T02:34:29.143Z,95717.06
2023-01-07T02:37:07.763Z,95719.94
2023-01-07T02:40:00.923Z,95731.13
2023-01-07T02:42:40.289Z,95736.59
2023-01-07T02:45:19.854Z,95733.31
2023-01-07T02:47:54.420Z,95732.59
2023-01-07T02:50:21.539Z,95723.94
2023-01-07T02:52:48.621Z,95724.91
2023-01-07T02:55:19.452Z,95727.78
2023-01-07T02:58:18.311Z,95733.78
2023-01-07T03:01:15.217Z,95741.34
2023-01-07T03:04:08.622Z,95735.03
2023-01-07T03:06:41.246Z,95722.56
2023-01-07T03:09:21.673Z,95741.38
2023-01-07T03:12:04.818Z,95738.94
2023-01-07T03:14:46.777Z,95744.22
2023-01-07T03:17:20.579Z,95736.47
2023-01-07T03:19:55.046Z,95732.38
2023-01-07T03:22:25.929Z,95718.13
2023-01-07T03:24:56.591Z,95732.78
2023-01-07T03:27:27.113Z,95738.28
2023-01-07T03:29:56.128Z,95736.84
2023-01-07T03:32:32.151Z,95734.41
2023-01-07T03:34:59.311Z,95673.44
2023-01-07T03:37:28.802Z,95738.44
2023-01-07T03:40:00.657Z,95681.16
2023-01-07T03:42:40.787Z,95750.28
2023-01-07T03:45:23.773Z,95663.91
2023-01-07T03:47:54.397Z,95731.50
2023-01-07T03:50:23.637Z,95738.47
2023-01-07T03:52:52.038Z,95745.22
2023-01-07T03:55:20.629Z,95739.75
2023-01-07T03:57:49.504Z,95746.69
2023-01-07T04:00:17.626Z,95746.31
2023-01-07T04:02:52.820Z,95742.47
2023-01-07T04:05:33.730Z,95752.84
2023-01-07T04:08:00.940Z,95753.66
2023-01-07T04:10:32.391Z,95746.03
2023-01-07T04:12:59.363Z,95759.19
2023-01-07T04:15:26.211Z,95757.19
2023-01-07T04:17:53.415Z,95765.38
2023-01-07T04:20:20.634Z,95771.69
2023-01-07T04:22:47.610Z,95769.44
2023-01-07T04:25:14.809Z,95769.72
2023-01-07T04:27:42.116Z,95765.44
2023-01-07T04:30:09.464Z,95710.88
2023-01-07T04:32:36.461Z,95766.31
2023-01-07T04:35:03.517Z,95771.22
2023-01-07T04:37:31.713Z,95764.09
2023-01-07T04:39:59.274Z,95768.56
2023-01-07T04:42:26.667Z,95767.63
2023-01-07T04:44:54.515Z,95765.81
2023-01-07T04:47:22.612Z,95762.97
2023-01-07T04:49:50.128Z,95775.69
2023-01-07T04:52:17.383Z,95776.50
2023-01-07T04:54:44.422Z,95771.78
2023-01-07T04:57:11.431Z,95776.06
2023-01-07T04:59:38.551Z,95778.06
2023-01-07T05:02:06.191Z,95779.25
2023-01-07T05:04:33.574Z,95765.81
2023-01-07T05:07:01.600Z,95769.09
2023-01-07T05:09:29.410Z,95771.72
2023-01-07T05:11:56.441Z,95771.09
2023-01-07T05:14:23.912Z,95771.41
2023-01-07T05:16:53.978Z,95778.13
2023-01-07T05:19:21.956Z,95777.31
2023-01-07T05:21:49.563Z,95775.63
2023-01-07T05:24:17.376Z,95777.91
2023-01-07T05:26:45.443Z,95774.94
2023-01-07T05:29:13.516Z,95795.16
2023-01-07T05:31:42.433Z,95790.88
2023-01-07T05:34:09.363Z,95784.06
2023-01-07T05:36:36.818Z,95798.53
2023-01-07T05:39:05.676Z,95803.00
2023-01-07T05:41:33.371Z,95794.06
2023-01-07T05:44:02.198Z,95791.00
2023-01-07T05:46:29.070Z,95793.19
2023-01-07T05:48:56.095Z,95796.66
2023-01-07T05:51:22.912Z,95780.97
2023-01-07T05:53:49.844Z,95795.19
2023-01-07T05:56:16.712Z,95801.50
2023-01-07T05:58:43.714Z,95793.75
2023-01-07T06:01:10.877Z,95792.69
2023-01-07T06:03:37.902Z,95805.09
2023-01-07T06:06:07.453Z,95798.78
2023-01-07T06:08:39.247Z,95807.72
2023-01-07T06:11:08.028Z,95568.81
2023-01-07T06:13:35.826Z,95816.06
2023-01-07T06:16:05.193Z,95810.59
2023-01-07T06:18:34.175Z,95805.31
2023-01-07T06:21:01.379Z,95800.22
2023-01-07T06:23:28.223Z,95794.94
2023-01-07T06:25:55.221Z,95811.13
2023-01-07T06:28:22.089Z,95809.75
2023-01-07T06:30:49.164Z,95803.25
2023-01-07T06:33:17.055Z,95772.91
2023-01-07T06:35:45.699Z,95812.69
2023-01-07T06:38:13.110Z,95811.06
2023-01-07T06:40:40.089Z,95796.59
2023-01-07T06:43:06.958Z,95804.75
2023-01-07T06:45:34.050Z,95812.22
2023-01-07T06:48:01.106Z,95808.16
2023-01-07T06:50:28.160Z,95815.91
2023-01-07T06:52:56.944Z,95815.34
2023-01-07T06:55:23.959Z,95812.34
2023-01-07T06:57:50.954Z,95811.34
2023-01-07T07:00:17.932Z,95813.56
2023-01-07T07:02:44.961Z,95813.66
2023-01-07T07:05:12.588Z,95826.50
2023-01-07T07:07:39.599Z,95825.50
2023-01-07T07:10:08.381Z,95823.44
2023-01-07T07:12:36.645Z,95829.56
2023-01-07T07:15:05.251Z,95822.50
2023-01-07T07:17:32.437Z,95831.09
2023-01-07T07:19:59.456Z,95829.44
2023-01-07T07:22:26.546Z,95827.81
2023-01-07T07:24:53.386Z,95830.44
2023-01-07T07:27:20.340Z,95819.41
2023-01-07T07:29:47.239Z,95821.25
2023-01-07T07:32:14.129Z,95820.06
2023-01-07T07:34:41.131Z,95820.44
2023-01-07T07:37:08.155Z,95828.03
2023-01-07T07:39:35.148Z,95831.31
2023-01-07T07:42:03.792Z,95820.81
2023-01-07T07:44:30.725Z,95824.34
2023-01-07T07:46:57.761Z,95821.50
2023-01-07T07:49:24.901Z,95831.09
2023-01-07T07:51:52.022Z,95828.63
2023-01-07T07:54:19.219Z,95823.97
2023-01-07T07:56:46.229Z,95828.84
2023-01-07T07:59:13.103Z,95829.66
2023-01-07T08:01:40.101Z,95799.44
2023-01-07T08:04:07.411Z,95822.41
2023-01-07T08:06:34.439Z,95822.22
2023-01-07T08:09:01.456Z,95814.28
2023-01-07T08:11:28.541Z,95832.03
2023-01-07T08:13:55.597Z,95832.28
2023-01-07T08:16:22.669Z,95823.16
2023-01-07T08:18:49.804Z,95822.97
2023-01-07T08:21:16.783Z,95821.72
2023-01-07T08:23:43.723Z,95833.56
2023-01-07T08:26:11.003Z,95821.16
2023-01-07T08:28:38.566Z,95816.13
2023-01-07T08:31:08.120Z,95834.47
2023-01-07T08:33:38.663Z,95825.97
2023-01-07T08:36:18.123Z,95811.28
2023-01-07T08:38:53.202Z,95824.06
2023-01-07T08:41:22.331Z,95825.06
2023-01-07T08:43:49.318Z,95819.78
2023-01-07T08:46:16.556Z,95818.78
2023-01-07T08:48:43.472Z,95817.00
2023-01-07T08:51:10.410Z,95807.44
2023-01-07T08:53:37.407Z,95816.66
2023-01-07T08:56:04.592Z,95794.44
2023-01-07T08:59:36.644Z,95802.06
2023-01-07T09:27:20.548Z,95785.13
2023-01-07T09:43:23.051Z,95748.44
2023-01-07T09:45:53.858Z,95672.50
2023-01-07T09:48:29.657Z,95733.56
2023-01-07T09:51:08.054Z,95730.28
2023-01-07T09:53:42.173Z,95705.78
2023-01-07T09:56:20.231Z,95719.88
2023-01-07T09:58:48.723Z,95715.56
2023-01-07T10:01:21.609Z,95717.63
2023-01-07T10:04:05.557Z,95707.00
2023-01-07T10:06:44.118Z,95709.22
2023-01-07T10:09:26.887Z,95693.50
2023-01-07T10:12:03.149Z,95699.78
2023-01-07T10:15:08.775Z,95696.16
2023-01-07T10:17:51.530Z,95678.13
2023-01-07T10:20:21.622Z,95686.50
2023-01-07T10:22:53.940Z,95675.63
2023-01-07T10:25:35.997Z,95670.53
2023-01-07T10:28:07.228Z,95670.69
2023-01-07T10:30:42.715Z,95657.44
2023-01-07T10:33:17.630Z,95660.66
2023-01-07T10:35:48.306Z,95658.34
2023-01-07T10:38:19.249Z,95648.34
2023-01-07T10:40:54.872Z,95649.75
2023-01-07T10:43:28.118Z,95640.88
2023-01-07T10:46:23.439Z,95623.94
2023-01-07T10:48:53.392Z,95631.50
2023-01-07T10:51:26.342Z,95631.34
2023-01-07T10:54:26.082Z,95620.44
2023-01-07T10:57:01.320Z,95621.81
2023-01-07T10:59:28.289Z,95624.25
2023-01-07T11:01:58.230Z,95620.16
2023-01-07T11:04:26.441Z,95609.25
2023-01-07T11:07:04.374Z,95608.22
2023-01-07T11:09:36.086Z,95598.97
2023-01-07T11:12:17.825Z,95598.53
2023-01-07T11:14:46.958Z,95547.78
2023-01-07T11:17:32.460Z,95593.06
2023-01-07T11:19:59.526Z,95596.31
2023-01-07T11:22:26.347Z,95592.66
2023-01-07T11:24:54.769Z,95592.34
2023-01-07T11:27:24.505Z,95403.53
2023-01-07T11:30:23.277Z,95575.19
2023-01-07T11:32:59.797Z,95569.88
2023-01-07T11:35:30.573Z,95555.88
2023-01-07T11:37:59.286Z,95560.50
2023-01-07T11:40:31.666Z,95569.44
2023-01-07T11:43:02.379Z,95558.25
2023-01-07T11:45:32.830Z,95558.41
2023-01-07T11:48:09.768Z,95551.00
2023-01-07T11:50:43.456Z,95549.38
2023-01-07T11:53:13.418Z,95540.69
2023-01-07T11:55:54.973Z,95541.09
2023-01-07T11:58:29.405Z,95532.94
2023-01-07T12:01:12.527Z,95528.28
2023-01-07T12:03:51.830Z,95522.97
2023-01-07T12:06:25.455Z,95519.44
2023-01-07T12:09:07.682Z,95521.47
2023-01-07T12:11:39.474Z,95511.34
2023-01-07T12:14:25.136Z,95516.44
2023-01-07T12:16:54.146Z,95511.38
2023-01-07T12:19:24.118Z,95513.16
2023-01-07T12:22:08.875Z,95506.28
2023-01-07T12:25:03.220Z,95489.63
2023-01-07T12:27:56.704Z,95496.88
2023-01-07T12:30:59.973Z,95499.09
2023-01-07T12:33:46.339Z,95499.81
2023-01-07T12:36:21.015Z,95490.66
2023-01-07T12:38:52.711Z,95487.63
2023-01-07T12:41:29.124Z,95484.28
2023-01-07T12:44:22.033Z,95485.31
2023-01-07T12:46:51.848Z,95489.50
2023-01-07T12:49:34.172Z,95491.28
2023-01-07T12:52:15.324Z,95490.22
2023-01-07T12:54:59.628Z,95495.78
2023-01-07T12:57:41.224Z,95487.44
2023-01-07T13:00:20.569Z,95489.06
2023-01-07T13:03:06.393Z,95490.91
2023-01-07T13:05:52.697Z,95482.09
2023-01-07T13:08:28.316Z,95487.78
2023-01-07T13:11:19.852Z,95468.44
2023-01-07T13:13:54.188Z,95464.69
2023-01-07T13:16:21.247Z,95475.03
2023-01-07T13:18:48.196Z,95461.00
2023-01-07T13:21:18.128Z,95479.13
2023-01-07T13:23:54.111Z,95486.19
2023-01-07T13:26:51.404Z,95484.69
2023-01-07T13:29:26.200Z,95480.75
2023-01-07T13:32:08.284Z,95482.03
2023-01-07T13:34:58.920Z,95477.84
2023-01-07T13:37:35.185Z,95480.84
2023-01-07T13:40:37.034Z,95490.03
2023-01-07T13:43:16.048Z,95489.91
2023-01-07T13:45:54.953Z,95470.31
2023-01-07T13:48:27.511Z,95449.22
2023-01-07T13:51:09.482Z,95479.63
2023-01-07T13:53:36.316Z,95484.41
2023-01-07T13:56:18.424Z,95481.59
2023-01-07T13:58:53.299Z,95467.19
2023-01-07T14:01:24.804Z,95478.56
2023-01-07T14:03:53.295Z,95481.44
2023-01-07T14:06:23.896Z,95481.44
2023-01-07T14:09:06.014Z,95485.38
2023-01-07T14:11:32.873Z,95478.09
2023-01-07T14:14:07.744Z,95477.94
2023-01-07T14:16:43.800Z,95464.97
2023-01-07T14:19:46.971Z,95481.66
2023-01-07T14:22:17.005Z,95480.25
2023-01-07T14:25:00.611Z,95487.34
2023-01-07T14:27:42.676Z,95483.03
2023-01-07T14:30:49.302Z,95485.34
2023-01-07T14:33:49.857Z,95482.91
2023-01-07T14:36:16.996Z,95486.03
2023-01-07T14:38:43.853Z,95483.63
2023-01-07T14:41:16.473Z,95476.88
2023-01-07T14:43:43.621Z,95488.00
2023-01-07T14:46:36.883Z,95459.22
2023-01-07T14:49:30.215Z,95485.88
2023-01-07T14:52:06.361Z,95483.91
2023-01-07T14:54:42.902Z,95490.94
2023-01-07T14:57:44.542Z,95489.56
2023-01-07T15:00:32.985Z,95480.59
2023-01-07T15:03:08.848Z,95483.94
2023-01-07T15:05:45.007Z,95480.13
2023-01-07T15:08:37.246Z,95482.63
2023-01-07T15:11:25.563Z,95489.44
2023-01-07T15:14:25.818Z,95493.84
2023-01-07T15:16:54.393Z,95488.56
2023-01-07T15:19:21.909Z,95486.63
2023-01-07T15:22:02.170Z,95481.94
2023-01-07T15:24:47.225Z,95490.38
2023-01-07T15:27:56.048Z,95483.53
2023-01-07T15:30:36.137Z,95488.09
2023-01-07T15:33:09.926Z,95491.66
2023-01-07T15:35:43.950Z,95489.88
2023-01-07T15:38:23.116Z,95492.63
2023-01-07T15:40:50.846Z,95437.75
2023-01-07T15:43:23.688Z,95485.72
2023-01-07T15:46:06.969Z,95485.81
2023-01-07T15:48:34.211Z,95491.13
2023-01-07T15:51:01.232Z,95492.44
2023-01-07T15:53:30.044Z,95496.72
2023-01-07T15:56:00.021Z,95498.78
2023-01-07T15:58:40.096Z,95494.50
2023-01-07T16:01:15.142Z,95505.00
2023-01-07T16:03:42.696Z,95485.25
2023-01-07T16:06:32.144Z,95489.53
2023-01-07T16:09:02.054Z,95498.16
2023-01-07T16:11:30.884Z,95489.63
2023-01-07T16:14:03.515Z,95493.34
2023-01-07T16:16:32.270Z,95490.50
2023-01-07T16:19:03.461Z,95479.09
2023-01-07T16:21:37.148Z,95431.16
2023-01-07T16:24:05.315Z,95492.25
2023-01-07T16:26:43.392Z,95487.34
2023-01-07T16:29:20.833Z,95486.16
2023-01-07T16:31:48.834Z,95469.50
2023-01-07T16:34:38.879Z,95484.59
2023-01-07T16:37:12.442Z,95486.47
2023-01-07T16:39:43.134Z,95492.81
2023-01-07T16:42:20.142Z,95493.25
2023-01-07T16:44:49.730Z,95492.66
2023-01-07T16:47:21.682Z,95489.19
2023-01-07T16:49:52.498Z,95489.44
2023-01-07T16:52:22.265Z,95493.34
2023-01-07T16:54:50.199Z,95496.22
2023-01-07T16:57:29.943Z,95494.59
2023-01-07T16:59:59.727Z,95476.50
2023-01-07T17:02:48.760Z,95501.13
2023-01-07T17:05:19.697Z,95487.53
2023-01-07T17:07:50.107Z,95502.44
2023-01-07T17:54:25.584Z,95532.03
2023-01-07T17:56:53.011Z,95534.53
2023-01-07T17:59:22.171Z,95540.69
2023-01-07T18:01:51.572Z,95523.59
2023-01-07T18:04:18.420Z,95539.53
2023-01-07T18:06:45.869Z,95526.91
2023-01-07T18:09:13.805Z,95523.47
2023-01-07T18:12:03.885Z,95538.16
2023-01-07T18:14:34.395Z,95534.06
2023-01-07T18:17:02.929Z,95543.03
2023-01-07T18:19:30.182Z,95541.00
2023-01-07T18:21:57.271Z,95539.97
2023-01-07T18:24:24.468Z,95539.16
2023-01-07T18:26:51.345Z,95544.66
2023-01-07T18:29:18.265Z,95541.81
2023-01-07T18:31:45.355Z,95542.00
2023-01-07T18:34:14.588Z,95545.28
2023-01-07T18:36:42.251Z,95549.75
2023-01-07T18:39:17.428Z,95526.53
2023-01-07T18:41:48.797Z,95551.59
2023-01-07T18:44:19.103Z,95527.94
2023-01-07T18:46:46.543Z,95544.47
2023-01-07T18:49:16.691Z,95546.09
2023-01-07T18:51:46.910Z,95534.28
2023-01-07T18:54:14.598Z,95411.59
2023-01-07T18:56:41.783Z,95542.03
2023-01-07T19:00:37.588Z,95541.41
2023-01-07T19:03:04.685Z,95548.34
2023-01-07T19:05:31.575Z,95545.28
2023-01-07T19:07:58.449Z,95552.44
2023-01-07T19:10:26.690Z,95546.31
2023-01-07T19:12:53.835Z,95541.63
2023-01-07T19:15:21.060Z,95527.16
2023-01-07T19:17:48.378Z,95544.88
2023-01-07T19:20:16.497Z,95535.28
2023-01-07T19:22:44.532Z,95536.72
2023-01-07T19:25:11.669Z,95405.03
2023-01-07T19:27:39.945Z,95549.97
2023-01-07T19:30:07.481Z,95542.63
2023-01-07T19:32:34.474Z,95547.53
2023-01-07T19:35:01.620Z,95534.66
2023-01-07T19:37:33.422Z,95519.75
2023-01-07T19:40:00.365Z,95536.50
2023-01-07T19:42:27.392Z,95530.78
2023-01-07T19:44:54.370Z,95518.56
2023-01-07T19:47:21.701Z,95548.53
2023-01-07T19:49:48.591Z,95541.59
2023-01-07T19:52:15.596Z,95536.88
2023-01-07T19:54:42.476Z,95544.44
2023-01-07T19:57:09.850Z,95530.78
2023-01-07T19:59:36.921Z,95488.97
2023-01-07T20:02:04.864Z,95551.34
2023-01-07T20:04:31.818Z,95539.94
2023-01-07T20:06:58.866Z,95522.19
2023-01-07T20:09:25.851Z,95547.06
2023-01-07T20:11:53.001Z,95544.19
2023-01-07T20:14:19.859Z,95550.09
2023-01-07T20:16:46.786Z,95545.84
2023-01-07T20:19:13.908Z,95551.13
2023-01-07T20:21:40.890Z,95552.97
2023-01-07T20:24:08.379Z,95562.13
2023-01-07T20:26:35.725Z,95560.66
2023-01-07T20:33:35.332Z,95566.94
2023-01-07T20:36:05.152Z,95558.16
2023-01-07T20:38:32.705Z,95559.19
2023-01-07T20:41:04.687Z,95566.31
2023-01-07T20:43:32.529Z,95564.69
2023-01-07T20:46:02.749Z,95539.38
2023-01-07T20:48:33.375Z,95559.53
2023-01-07T20:51:05.298Z,95565.47
2023-01-07T20:53:32.206Z,95550.97
2023-01-07T20:56:00.755Z,95568.91
2023-01-07T20:58:30.780Z,95553.38
2023-01-07T21:00:58.170Z,95566.03
2023-01-07T21:03:25.677Z,95570.75
2023-01-07T21:05:57.042Z,95570.75
2023-01-07T21:08:24.885Z,95554.00
2023-01-07T21:10:52.149Z,95569.31
2023-01-07T21:13:20.474Z,95551.16
2023-01-07T21:15:47.410Z,95558.69
2023-01-07T21:18:14.606Z,95562.97
2023-01-07T21:20:41.749Z,95543.56
2023-01-07T21:23:09.707Z,95539.91
2023-01-07T21:25:36.647Z,95571.28
2023-01-07T21:28:03.893Z,95559.50
2023-01-07T21:30:31.771Z,95553.97
2023-01-07T21:32:59.670Z,95559.06
2023-01-07T21:35:26.801Z,95568.44
2023-01-07T21:37:55.083Z,95567.00
2023-01-07T21:40:22.931Z,95572.28
2023-01-07T21:42:53.745Z,95566.19
2023-01-07T21:45:20.963Z,95535.75
2023-01-07T21:47:47.955Z,95563.09
2023-01-07T21:50:16.754Z,95547.16
2023-01-07T21:52:47.367Z,95569.56
2023-01-07T21:55:14.873Z,95568.13
2023-01-07T21:57:42.211Z,95529.38
2023-01-07T22:00:10.967Z,95555.09
2023-01-07T22:02:40.363Z,95561.19
2023-01-07T22:05:08.039Z,95566.47
2023-01-07T22:07:36.928Z,95548.97
2023-01-07T22:10:04.461Z,95522.81
2023-01-07T22:12:31.356Z,95547.06
2023-01-07T22:14:58.210Z,95541.59
2023-01-07T22:17:25.328Z,95531.16
2023-01-07T22:19:52.334Z,95542.19
2023-01-07T22:22:21.832Z,95553.59
2023-01-07T22:24:49.209Z,95552.78
2023-01-07T22:27:16.110Z,95533.59
2023-01-07T22:29:44.597Z,95545.06
2023-01-07T22:32:13.295Z,95538.28
2023-01-07T22:34:40.187Z,95531.97
2023-01-07T22:37:12.535Z,95533.97
2023-01-07T22:39:44.039Z,95541.09
2023-01-07T22:42:26.241Z,95544.75
2023-01-07T22:44:59.203Z,95526.38
2023-01-07T22:47:33.437Z,95534.94
2023-01-07T22:50:03.656Z,95546.56
2023-01-07T22:52:31.377Z,95523.50
2023-01-07T22:54:59.049Z,95529.44
2023-01-07T22:57:26.431Z,95540.22
2023-01-07T22:59:53.294Z,95534.31
2023-01-07T23:02:20.702Z,95536.53
2023-01-07T23:04:47.809Z,95528.81
2023-01-07T23:07:14.775Z,95519.78
2023-01-07T23:09:41.766Z,95538.13
2023-01-07T23:12:11.155Z,95539.13
2023-01-07T23:14:38.074Z,95538.13
2023-01-07T23:17:05.081Z,95529.97
2023-01-07T23:19:32.563Z,95525.63
2023-01-07T23:21:59.532Z,95540.28
2023-01-07T23:24:26.460Z,95527.44
2023-01-07T23:26:54.918Z,95509.25
2023-01-07T23:29:22.044Z,95527.63
2023-01-07T23:31:49.463Z,95530.47
2023-01-07T23:34:16.808Z,95530.66
2023-01-07T23:36:44.109Z,95534.53
2023-01-07T23:39:10.983Z,95524.16
2023-01-07T23:41:38.103Z,95511.25
2023-01-07T23:44:05.233Z,95534.91
2023-01-07T23:46:32.193Z,95520.44
2023-01-07T23:48:59.114Z,95522.72
2023-01-07T23:51:27.485Z,95528.75
2023-01-07T23:53:54.541Z,95513.41
2023-01-07T23:56:22.046Z,95533.41
2023-01-07T23:58:49.981Z,95522.41
